Time;durP1;ratioP1;P1;durP2;ratioP2;P2;SDS_P1;SDS_P2;PMS_P1;PMS_P2;Temp;Humidity;BMP_temperature;BMP_pressure;BME280_temperature;BME280_humidity;BME280_pressure;Samples;Min_cycle;Max_cycle;Signal;HPM_P1;HPM_P2
2023/11/06 00:00:16;;;;;;;8.63;1.30;;;11.00;99.90;;;;;;5071481;28;20036;-72
2023/11/06 00:02:45;;;;;;;4.85;1.23;;;11.00;99.90;;;;;;5072787;28;20025;-72
2023/11/06 00:05:11;;;;;;;4.13;1.10;;;11.00;99.90;;;;;;5078215;28;20033;-72
2023/11/06 00:07:37;;;;;;;3.33;1.00;;;11.10;99.90;;;;;;5098834;28;20054;-71
2023/11/06 00:10:03;;;;;;;3.83;1.00;;;11.10;99.90;;;;;;5073306;28;20471;-72
2023/11/06 00:12:30;;;;;;;5.88;1.50;;;11.20;99.90;;;;;;5091250;28;20039;-73
2023/11/06 00:14:56;;;;;;;6.57;1.33;;;11.10;99.90;;;;;;5093078;28;20036;-72
2023/11/06 00:17:23;;;;;;;4.88;1.02;;;11.10;99.90;;;;;;5091754;28;20051;-72
2023/11/06 00:19:48;;;;;;;2.90;0.85;;;11.00;99.90;;;;;;5091102;28;20424;-72
2023/11/06 00:22:14;;;;;;;4.55;1.15;;;11.20;99.90;;;;;;5093123;28;20039;-72
2023/11/06 00:24:40;;;;;;;5.37;1.20;;;11.20;99.90;;;;;;5093599;28;20038;-72
2023/11/06 00:27:05;;;;;;;7.17;1.57;;;11.20;99.90;;;;;;5094541;28;20349;-72
2023/11/06 00:29:31;;;;;;;5.10;1.40;;;11.30;99.90;;;;;;5086888;28;20399;-72
2023/11/06 00:31:57;;;;;;;4.63;1.08;;;11.30;99.90;;;;;;5076652;28;20021;-72
2023/11/06 00:34:22;;;;;;;5.40;1.17;;;11.40;99.90;;;;;;5095225;28;20039;-72
2023/11/06 00:36:48;;;;;;;4.70;1.30;;;11.40;99.90;;;;;;5112945;28;20369;-72
2023/11/06 00:39:14;;;;;;;6.45;1.35;;;11.40;99.90;;;;;;5101234;28;20035;-72
2023/11/06 00:41:42;;;;;;;6.97;1.40;;;11.40;99.90;;;;;;5075199;28;20513;-72
2023/11/06 00:44:08;;;;;;;5.80;1.42;;;11.50;99.90;;;;;;5076375;28;20110;-72
2023/11/06 00:46:34;;;;;;;3.78;1.20;;;11.50;99.90;;;;;;5075848;28;20479;-71
2023/11/06 00:49:01;;;;;;;7.00;1.10;;;11.50;99.90;;;;;;5075336;28;20099;-71
2023/11/06 00:51:26;;;;;;;5.32;1.30;;;11.50;99.90;;;;;;5076604;28;20029;-72
2023/11/06 00:53:52;;;;;;;4.73;0.80;;;11.50;99.90;;;;;;5091910;28;20028;-72
2023/11/06 00:56:17;;;;;;;4.20;1.20;;;11.50;99.90;;;;;;5095910;28;20020;-72
2023/11/06 00:58:43;;;;;;;6.90;1.10;;;11.50;99.90;;;;;;5095383;28;20123;-73
2023/11/06 01:01:08;;;;;;;2.83;0.77;;;11.50;99.90;;;;;;5085452;28;20055;-73
2023/11/06 01:03:34;;;;;;;4.37;1.00;;;11.50;99.90;;;;;;5092166;28;20278;-72
2023/11/06 01:06:00;;;;;;;6.20;1.60;;;11.60;99.90;;;;;;5096813;28;20024;-72
2023/11/06 01:08:25;;;;;;;3.80;0.90;;;11.60;99.90;;;;;;5096482;28;20031;-73
2023/11/06 01:10:51;;;;;;;5.93;1.10;;;11.60;99.90;;;;;;5093833;28;20063;-73
2023/11/06 01:13:17;;;;;;;6.60;1.07;;;11.60;99.90;;;;;;5077921;28;20117;-75
2023/11/06 01:15:43;;;;;;;3.13;0.90;;;11.70;99.90;;;;;;5076378;28;20423;-72
2023/11/06 01:18:09;;;;;;;5.27;1.30;;;11.60;99.90;;;;;;5074951;28;20024;-72
2023/11/06 01:20:35;;;;;;;6.00;1.15;;;11.60;99.90;;;;;;5077090;28;20046;-70
2023/11/06 01:23:01;;;;;;;8.07;1.10;;;11.60;99.90;;;;;;5077629;28;20025;-71
2023/11/06 01:25:26;;;;;;;6.93;1.30;;;11.70;99.90;;;;;;5076154;28;20158;-73
2023/11/06 01:27:52;;;;;;;5.57;0.90;;;11.70;99.90;;;;;;5075554;28;20501;-73
2023/11/06 01:30:18;;;;;;;3.03;0.93;;;11.60;99.90;;;;;;5075182;28;20016;-73
2023/11/06 01:32:44;;;;;;;4.65;1.02;;;11.70;99.90;;;;;;5077512;28;20320;-72
2023/11/06 01:35:11;;;;;;;5.05;1.00;;;11.70;99.90;;;;;;5079114;28;20032;-73
2023/11/06 01:37:38;;;;;;;6.05;1.38;;;11.70;99.90;;;;;;5095049;28;20028;-73
2023/11/06 01:40:06;;;;;;;;;;;11.70;99.90;;;;;;5097420;28;20028;-73
2023/11/06 01:42:31;;;;;;;4.93;0.90;;;11.70;99.90;;;;;;5095335;28;20018;-73
2023/11/06 01:44:57;;;;;;;4.73;0.90;;;11.70;99.90;;;;;;5094752;28;20546;-72
2023/11/06 01:47:24;;;;;;;3.70;0.75;;;11.70;99.90;;;;;;5096065;28;20042;-73
2023/11/06 01:49:50;;;;;;;4.00;1.00;;;11.70;99.90;;;;;;5086375;28;20023;-73
2023/11/06 01:52:18;;;;;;;3.10;1.02;;;11.60;99.90;;;;;;5074794;28;20020;-73
2023/11/06 01:54:44;;;;;;;3.28;0.95;;;11.40;99.90;;;;;;5075423;28;20364;-72
2023/11/06 01:57:11;;;;;;;4.95;0.93;;;11.40;99.90;;;;;;5074193;28;20039;-71
2023/11/06 01:59:37;;;;;;;5.70;1.00;;;11.40;99.90;;;;;;5076938;28;20403;-72
2023/11/06 02:02:05;;;;;;;7.40;1.67;;;11.50;99.90;;;;;;5082211;28;20042;-72
2023/11/06 02:04:32;;;;;;;5.82;1.08;;;11.40;99.90;;;;;;5095062;28;20112;-73
2023/11/06 02:07:01;;;;;;;4.13;0.82;;;11.50;99.90;;;;;;5097085;28;20020;-73
2023/11/06 02:09:29;;;;;;;2.05;0.50;;;11.40;99.90;;;;;;5082406;28;20028;-73
2023/11/06 02:11:57;;;;;;;5.43;0.68;;;11.40;99.90;;;;;;5074821;28;20451;-72
2023/11/06 02:14:23;;;;;;;5.10;0.90;;;11.30;99.90;;;;;;5077452;28;20460;-73
2023/11/06 02:16:51;;;;;;;2.83;0.88;;;11.30;99.90;;;;;;5074347;28;20047;-72
2023/11/06 02:19:17;;;;;;;2.95;0.65;;;11.20;99.90;;;;;;5073141;28;20043;-73
2023/11/06 02:21:47;;;;;;;4.38;0.90;;;11.20;99.90;;;;;;5074910;28;20020;-72
2023/11/06 02:24:13;;;;;;;4.88;1.05;;;11.20;99.90;;;;;;5074544;28;20025;-72
2023/11/06 02:26:38;;;;;;;2.88;0.70;;;11.10;99.90;;;;;;5074509;28;20012;-71
2023/11/06 02:29:04;;;;;;;3.93;0.67;;;11.10;99.90;;;;;;5074106;28;20054;-73
2023/11/06 02:31:29;;;;;;;6.00;0.90;;;11.00;99.90;;;;;;5077349;28;20032;-72
2023/11/06 02:33:55;;;;;;;5.05;1.33;;;10.90;99.90;;;;;;5074317;28;20020;-72
2023/11/06 02:36:20;;;;;;;4.47;1.00;;;10.90;99.90;;;;;;5085617;28;20028;-72
2023/11/06 02:38:46;;;;;;;3.87;0.70;;;10.80;99.90;;;;;;5092809;28;20020;-71
2023/11/06 02:41:12;;;;;;;2.67;0.67;;;10.70;99.90;;;;;;5082363;28;20120;-72
2023/11/06 02:43:38;;;;;;;4.32;0.70;;;10.70;99.90;;;;;;5073554;28;20033;-71
2023/11/06 02:46:03;;;;;;;5.50;0.85;;;10.60;99.90;;;;;;5074018;28;20025;-72
2023/11/06 02:48:31;;;;;;;2.95;0.88;;;10.50;99.90;;;;;;5072971;28;20025;-71
2023/11/06 02:50:56;;;;;;;3.88;0.80;;;10.50;99.90;;;;;;5073603;28;20033;-71
2023/11/06 02:53:22;;;;;;;5.43;1.43;;;10.50;99.90;;;;;;5093085;28;20031;-70
2023/11/06 02:55:47;;;;;;;7.73;0.90;;;10.50;99.90;;;;;;5080142;28;20032;-71
2023/11/06 02:58:13;;;;;;;2.33;0.80;;;10.60;99.90;;;;;;5073800;28;20025;-71
2023/11/06 03:00:39;;;;;;;3.50;0.68;;;10.50;99.90;;;;;;5073836;28;20054;-69
2023/11/06 03:03:05;;;;;;;2.25;0.80;;;10.50;99.90;;;;;;5073966;28;20530;-72
2023/11/06 03:05:31;;;;;;;3.95;0.93;;;10.50;99.90;;;;;;5085318;28;20028;-72
2023/11/06 03:07:57;;;;;;;5.78;0.85;;;10.50;99.90;;;;;;5100914;28;20024;-72
2023/11/06 03:10:22;;;;;;;3.63;0.85;;;10.50;99.90;;;;;;5092062;28;20056;-71
2023/11/06 03:12:48;;;;;;;6.95;0.98;;;10.50;99.90;;;;;;5092499;28;20024;-71
2023/11/06 03:15:13;;;;;;;0.93;0.40;;;10.50;99.90;;;;;;5094302;28;20039;-72
2023/11/06 03:17:39;;;;;;;4.10;0.70;;;10.50;99.90;;;;;;5095266;28;20028;-72
2023/11/06 03:20:10;;;;;;;7.53;1.07;;;10.50;99.90;;;;;;5095823;28;20469;-72
2023/11/06 03:22:36;;;;;;;3.67;0.60;;;10.50;99.90;;;;;;5099483;28;20087;-70
2023/11/06 03:25:02;;;;;;;6.85;0.90;;;10.50;99.90;;;;;;5086700;28;20035;-69
2023/11/06 03:27:27;;;;;;;5.37;1.10;;;10.50;99.90;;;;;;5089662;28;20016;-70
2023/11/06 03:29:53;;;;;;;3.70;1.07;;;10.50;99.90;;;;;;5097748;28;20024;-69
2023/11/06 03:32:18;;;;;;;4.10;0.77;;;10.50;99.90;;;;;;5096338;28;20031;-69
2023/11/06 03:34:44;;;;;;;6.67;0.90;;;10.60;99.90;;;;;;5079957;28;20025;-69
2023/11/06 03:37:10;;;;;;;6.38;1.10;;;10.60;99.90;;;;;;5092389;28;20024;-69
2023/11/06 03:39:36;;;;;;;6.88;0.95;;;10.50;99.90;;;;;;5093127;28;20487;-69
2023/11/06 03:42:02;;;;;;;2.60;0.88;;;10.50;99.90;;;;;;5091907;28;20024;-68
2023/11/06 03:44:27;;;;;;;4.53;0.73;;;10.40;99.90;;;;;;5091539;28;20036;-69
2023/11/06 03:46:53;;;;;;;5.90;1.10;;;10.30;99.90;;;;;;5093110;28;20025;-69
2023/11/06 03:49:21;;;;;;;5.30;0.90;;;10.30;99.90;;;;;;5092902;28;20016;-69
2023/11/06 03:51:46;;;;;;;3.63;0.77;;;10.30;99.90;;;;;;5093644;28;20020;-69
2023/11/06 03:54:12;;;;;;;6.13;0.77;;;10.30;99.90;;;;;;5092642;28;20459;-69
2023/11/06 03:56:37;;;;;;;4.73;1.23;;;10.30;99.90;;;;;;5090002;28;20494;-69
2023/11/06 03:59:04;;;;;;;7.73;0.93;;;10.40;99.90;;;;;;5093622;28;20020;-69
2023/11/06 04:01:35;;;;;;;6.75;0.80;;;10.30;99.90;;;;;;5098350;28;20443;-70
2023/11/06 04:04:02;;;;;;;6.32;0.95;;;10.30;99.90;;;;;;5096846;28;20518;-70
2023/11/06 04:06:29;;;;;;;7.97;1.17;;;10.40;99.90;;;;;;5082501;28;20387;-70
2023/11/06 04:08:54;;;;;;;3.10;0.85;;;10.40;99.90;;;;;;5076368;28;20067;-70
2023/11/06 04:11:20;;;;;;;3.97;0.70;;;10.40;99.90;;;;;;5086236;28;20491;-69
2023/11/06 04:13:45;;;;;;;3.87;1.07;;;10.40;99.90;;;;;;5097330;28;20024;-69
2023/11/06 04:16:11;;;;;;;2.83;0.87;;;10.40;99.90;;;;;;5095275;28;20028;-70
2023/11/06 04:18:37;;;;;;;4.70;1.30;;;10.50;99.90;;;;;;5079324;28;20035;-70
2023/11/06 04:21:03;;;;;;;4.95;0.90;;;10.50;99.90;;;;;;5077847;28;20028;-70
2023/11/06 04:23:29;;;;;;;4.07;1.05;;;10.50;99.90;;;;;;5076702;28;20070;-70
2023/11/06 04:25:55;;;;;;;6.95;0.90;;;10.50;99.90;;;;;;5076480;28;20102;-69
2023/11/06 04:28:20;;;;;;;8.40;1.47;;;10.50;99.90;;;;;;5076715;28;20028;-68
2023/11/06 04:30:46;;;;;;;5.83;0.70;;;10.50;99.90;;;;;;5081174;28;20058;-69
2023/11/06 04:33:12;;;;;;;10.23;1.40;;;10.50;99.90;;;;;;5096625;28;20502;-69
2023/11/06 04:35:38;;;;;;;8.25;1.23;;;10.40;99.90;;;;;;5090217;28;20107;-69
2023/11/06 04:38:04;;;;;;;13.63;8.50;;;10.30;99.90;;;;;;5078201;28;20076;-69
2023/11/06 04:40:29;;;;;;;6.65;1.27;;;10.40;99.90;;;;;;5084741;28;20104;-70
2023/11/06 04:42:55;;;;;;;4.28;0.95;;;10.40;99.90;;;;;;5095023;28;20044;-69
2023/11/06 04:45:21;;;;;;;10.20;1.63;;;10.50;99.90;;;;;;5095181;28;20123;-70
2023/11/06 04:47:46;;;;;;;4.70;0.93;;;10.50;99.90;;;;;;5096327;28;20518;-70
2023/11/06 04:50:12;;;;;;;3.73;0.80;;;10.60;99.90;;;;;;5079698;28;20478;-69
2023/11/06 04:52:38;;;;;;;4.30;1.02;;;10.60;99.90;;;;;;5075919;28;20025;-69
2023/11/06 04:55:05;;;;;;;7.75;0.95;;;10.60;99.90;;;;;;5075738;28;20036;-69
2023/11/06 04:57:31;;;;;;;4.88;1.38;;;10.50;99.90;;;;;;5074549;28;20032;-69
2023/11/06 04:59:57;;;;;;;5.93;1.08;;;10.40;99.90;;;;;;5084480;28;20028;-69
2023/11/06 05:02:23;;;;;;;6.13;1.10;;;10.40;99.90;;;;;;5094974;28;20058;-68
2023/11/06 05:04:49;;;;;;;3.97;0.70;;;10.30;99.90;;;;;;5096674;28;20032;-69
2023/11/06 05:07:14;;;;;;;7.50;1.10;;;10.30;99.90;;;;;;5116444;28;20535;-69
2023/11/06 05:09:42;;;;;;;4.93;0.77;;;10.30;99.90;;;;;;5106904;28;20046;-69
2023/11/06 05:12:08;;;;;;;6.47;0.90;;;10.30;99.90;;;;;;5078967;28;20017;-70
2023/11/06 05:14:34;;;;;;;6.78;0.98;;;10.40;99.90;;;;;;5096103;28;20054;-70
2023/11/06 05:16:59;;;;;;;6.70;1.10;;;10.40;99.90;;;;;;5095881;28;20031;-68
2023/11/06 05:19:25;;;;;;;5.03;1.47;;;10.30;99.90;;;;;;5095783;28;20054;-70
2023/11/06 05:21:50;;;;;;;3.77;0.73;;;10.40;99.90;;;;;;5093782;28;20032;-70
2023/11/06 05:24:16;;;;;;;4.97;1.70;;;10.50;99.90;;;;;;5095410;28;20024;-70
2023/11/06 05:26:41;;;;;;;4.17;0.93;;;10.50;99.90;;;;;;5094408;28;20495;-69
2023/11/06 05:29:07;;;;;;;2.93;0.97;;;10.70;99.90;;;;;;5095595;28;20470;-69
2023/11/06 05:31:33;;;;;;;3.13;0.98;;;10.60;99.90;;;;;;5088416;28;20142;-69
2023/11/06 05:33:59;;;;;;;5.60;1.15;;;10.60;99.90;;;;;;5089172;28;20036;-70
2023/11/06 05:36:25;;;;;;;3.95;0.80;;;10.70;99.90;;;;;;5092043;28;20020;-70
2023/11/06 05:38:51;;;;;;;4.60;1.05;;;10.80;99.90;;;;;;5077111;28;20475;-69
2023/11/06 05:41:17;;;;;;;4.43;0.80;;;10.80;99.90;;;;;;5075057;28;20063;-70
2023/11/06 05:43:43;;;;;;;4.00;0.93;;;10.80;99.90;;;;;;5074271;28;20048;-69
2023/11/06 05:46:09;;;;;;;4.43;0.82;;;10.80;99.90;;;;;;5073962;28;20025;-69
2023/11/06 05:48:34;;;;;;;6.13;1.00;;;10.80;99.90;;;;;;5075410;28;20100;-69
2023/11/06 05:51:01;;;;;;;8.10;1.00;;;10.80;99.90;;;;;;5075591;28;20449;-68
2023/11/06 05:53:27;;;;;;;5.78;0.70;;;10.70;99.90;;;;;;5084647;28;20023;-68
2023/11/06 05:55:53;;;;;;;4.03;0.70;;;10.80;99.90;;;;;;5095587;28;20044;-68
2023/11/06 05:58:19;;;;;;;8.52;1.48;;;10.80;99.90;;;;;;5094030;28;20066;-68
2023/11/06 06:00:45;;;;;;;5.43;1.00;;;10.80;99.90;;;;;;5076323;28;20032;-70
2023/11/06 06:03:14;;;;;;;5.57;0.70;;;10.80;99.90;;;;;;5084115;28;20074;-71
2023/11/06 06:05:42;;;;;;;4.57;0.70;;;10.90;99.90;;;;;;5094043;28;20546;-70
